Time;durP1;ratioP1;P1;durP2;ratioP2;P2;SDS_P1;SDS_P2;PMS_P1;PMS_P2;Temp;Humidity;BMP_temperature;BMP_pressure;BME280_temperature;BME280_humidity;BME280_pressure;Samples;Min_cycle;Max_cycle;Signal;HPM_P1;HPM_P2
2022/06/25 00:01:25;;;;;;;6.07;3.40;;;;;;;16.53;100.00;100854.34;5055314;28;20404;-75
2022/06/25 00:03:51;;;;;;;6.68;3.20;;;;;;;16.55;100.00;100846.94;5054881;28;20086;-75
2022/06/25 00:06:18;;;;;;;6.80;3.10;;;;;;;16.55;100.00;100851.47;5055115;28;20032;-76
2022/06/25 00:08:44;;;;;;;4.03;2.90;;;;;;;16.54;100.00;100850.66;5054987;28;20048;-75
2022/06/25 00:12:31;;;;;;;4.65;2.83;;;;;;;16.51;100.00;100848.34;5054554;28;20041;-75
2022/06/25 00:13:56;;;;;;;4.35;3.03;;;;;;;16.48;100.00;100861.25;5054123;28;20051;-75
2022/06/25 00:16:22;;;;;;;6.10;2.97;;;;;;;16.48;100.00;100862.13;5054563;28;20090;-76
2022/06/25 00:18:47;;;;;;;5.38;2.80;;;;;;;16.45;100.00;100862.47;5054993;28;20342;-76
2022/06/25 00:21:12;;;;;;;6.63;3.00;;;;;;;16.47;100.00;100856.91;5054338;28;20048;-76
2022/06/25 00:23:37;;;;;;;8.25;2.83;;;;;;;16.45;100.00;100857.09;5054608;28;20116;-75
2022/06/25 00:26:03;;;;;;;6.20;3.13;;;;;;;16.40;100.00;100865.66;5054512;28;20116;-76
2022/06/25 00:28:28;;;;;;;8.48;3.15;;;;;;;16.37;100.00;100868.69;5054422;28;20116;-75
2022/06/25 00:30:53;;;;;;;5.57;3.20;;;;;;;16.38;100.00;100869.56;5054368;28;20045;-75
2022/06/25 00:33:19;;;;;;;5.00;3.00;;;;;;;16.36;100.00;100866.19;5053069;28;20041;-76
2022/06/25 00:35:44;;;;;;;5.45;3.10;;;;;;;16.32;100.00;100859.53;5054107;28;20033;-76
2022/06/25 00:38:09;;;;;;;7.07;3.10;;;;;;;16.30;100.00;100865.06;5054080;28;20053;-75
2022/06/25 00:40:35;;;;;;;4.93;3.28;;;;;;;16.29;100.00;100862.56;5052728;28;20103;-75
2022/06/25 00:43:01;;;;;;;4.70;3.05;;;;;;;16.29;100.00;100860.72;5054185;28;20116;-76
2022/06/25 00:45:26;;;;;;;8.73;3.63;;;;;;;16.29;100.00;100865.25;5054916;28;20429;-75
2022/06/25 00:47:52;;;;;;;5.55;3.40;;;;;;;16.26;100.00;100860.19;5054412;28;20056;-75
2022/06/25 00:50:17;;;;;;;8.73;3.10;;;;;;;16.22;100.00;100860.56;5054024;28;20040;-81
2022/06/25 00:52:47;;;;;;;6.55;4.07;;;;;;;16.18;100.00;100864.63;5054120;28;20029;-74
2022/06/25 00:55:12;;;;;;;6.57;3.28;;;;;;;16.16;100.00;100869.31;5054301;28;20048;-74
2022/06/25 00:57:40;;;;;;;5.97;3.30;;;;;;;16.12;100.00;100869.84;5053913;28;20460;-75
2022/06/25 01:00:09;;;;;;;6.40;3.78;;;;;;;16.10;100.00;100871.88;5053879;28;20402;-75
2022/06/25 01:02:35;;;;;;;5.78;3.67;;;;;;;16.06;100.00;100874.06;5053930;28;20025;-76
2022/06/25 01:05:05;;;;;;;5.28;3.47;;;;;;;16.03;100.00;100874.41;5053533;28;20029;-76
2022/06/25 01:07:32;;;;;;;5.07;3.25;;;;;;;15.97;100.00;100877.78;5054422;28;20044;-75
2022/06/25 01:09:57;;;;;;;7.88;3.88;;;;;;;15.92;100.00;100877.50;5052317;28;20160;-75
2022/06/25 01:12:23;;;;;;;6.93;3.65;;;;;;;15.88;100.00;100878.84;5053363;28;20116;-75
2022/06/25 01:15:13;;;;;;;5.10;3.03;;;;;;;15.82;100.00;100883.03;5053197;28;20212;-75
2022/06/25 01:17:46;;;;;;;6.03;3.33;;;;;;;15.77;100.00;100888.88;5053489;28;20029;-75
2022/06/25 01:20:14;;;;;;;6.05;3.80;;;;;;;15.75;100.00;100887.38;5052994;28;20040;-76
2022/06/25 01:22:39;;;;;;;9.68;4.60;;;;;;;15.75;100.00;100884.69;5052876;28;20153;-76
2022/06/25 01:25:08;;;;;;;6.88;4.55;;;;;;;15.73;100.00;100892.09;5053513;28;20468;-75
2022/06/25 01:27:33;;;;;;;6.50;4.10;;;;;;;15.71;100.00;100903.00;5052996;28;20481;-76
2022/06/25 01:29:59;;;;;;;11.85;4.97;;;;;;;15.71;100.00;100908.34;5053110;28;20055;-75
2022/06/25 01:32:24;;;;;;;6.53;4.18;;;;;;;15.68;100.00;100912.22;5051801;28;20048;-75
2022/06/25 01:34:50;;;;;;;8.90;5.28;;;;;;;15.66;100.00;100908.03;5052934;28;20120;-76
2022/06/25 01:37:15;;;;;;;5.07;4.30;;;;;;;15.65;100.00;100911.72;5053152;28;20048;-76
2022/06/25 01:39:40;;;;;;;10.15;5.03;;;;;;;15.63;100.00;100913.72;5050926;28;20128;-75
2022/06/25 01:42:06;;;;;;;8.77;4.90;;;;;;;15.62;100.00;100920.13;5052714;28;20182;-75
2022/06/25 01:44:35;;;;;;;6.75;4.63;;;;;;;15.60;100.00;100919.44;5053210;28;20165;-76
2022/06/25 01:47:01;;;;;;;5.47;4.22;;;;;;;15.57;100.00;100920.63;5052885;28;20029;-76
2022/06/25 01:49:26;;;;;;;8.82;5.55;;;;;;;15.54;100.00;100914.75;5051516;28;20032;-76
2022/06/25 01:51:51;;;;;;;13.13;5.65;;;;;;;15.49;100.00;100913.41;5053310;28;20033;-76
2022/06/25 01:54:17;;;;;;;12.00;5.55;;;;;;;15.50;100.00;100916.94;5052694;28;20033;-75
2022/06/25 01:56:42;;;;;;;9.65;5.07;;;;;;;15.46;100.00;100916.44;5052823;28;20464;-76
2022/06/25 01:59:08;;;;;;;10.63;5.55;;;;;;;15.42;100.00;100915.13;5052663;28;20037;-76
2022/06/25 02:01:33;;;;;;;11.15;6.22;;;;;;;15.38;100.00;100921.81;5051062;28;20079;-76
2022/06/25 02:03:59;;;;;;;13.90;6.13;;;;;;;15.37;100.00;100920.13;5052742;28;20464;-75
2022/06/25 02:06:24;;;;;;;16.08;7.13;;;;;;;15.40;100.00;100927.84;5052355;28;20083;-75
2022/06/25 02:08:50;;;;;;;16.17;7.00;;;;;;;15.43;100.00;100932.84;5052366;28;20025;-75
2022/06/25 02:11:15;;;;;;;15.43;7.05;;;;;;;15.47;100.00;100933.38;5052406;28;20389;-75
2022/06/25 02:13:40;;;;;;;13.35;6.25;;;;;;;15.47;100.00;100936.06;5051908;28;20036;-76
2022/06/25 02:16:06;;;;;;;15.52;6.93;;;;;;;15.48;100.00;100940.38;5049952;28;20076;-75
2022/06/25 02:18:32;;;;;;;15.30;6.90;;;;;;;15.49;100.00;100937.53;5052202;28;20033;-75
2022/06/25 02:20:57;;;;;;;17.30;7.65;;;;;;;15.55;100.00;100943.25;5051885;28;20029;-76
2022/06/25 02:23:23;;;;;;;14.20;7.05;;;;;;;15.55;100.00;100938.72;5052558;28;20125;-76
2022/06/25 02:25:49;;;;;;;15.63;6.75;;;;;;;15.57;100.00;100943.91;5051665;28;20500;-75
2022/06/25 02:28:16;;;;;;;15.73;6.70;;;;;;;15.58;100.00;100945.59;5051825;28;20032;-75
2022/06/25 02:30:42;;;;;;;12.75;6.50;;;;;;;15.56;100.00;100940.41;5052296;28;20037;-75
2022/06/25 02:33:11;;;;;;;23.17;6.68;;;;;;;15.59;100.00;100941.91;5051897;28;20116;-75
2022/06/25 02:35:38;;;;;;;13.27;6.22;;;;;;;15.64;100.00;100945.72;5052015;28;20025;-76
2022/06/25 02:38:04;;;;;;;9.70;5.20;;;;;;;15.67;100.00;100948.09;5051945;28;20442;-76
2022/06/25 02:40:29;;;;;;;11.57;5.45;;;;;;;15.68;100.00;100952.44;5050312;28;20028;-76
2022/06/25 02:42:55;;;;;;;11.57;6.13;;;;;;;15.66;100.00;100953.66;5051521;28;20068;-76
2022/06/25 02:45:20;;;;;;;11.60;5.93;;;;;;;15.63;100.00;100944.09;5050592;28;20033;-76
2022/06/25 02:47:46;;;;;;;14.32;5.93;;;;;;;15.61;100.00;100958.66;5054637;28;20035;-75
2022/06/25 02:50:11;;;;;;;9.27;5.20;;;;;;;15.57;100.00;100958.19;5058592;28;20464;-75
2022/06/25 02:52:36;;;;;;;11.77;5.60;;;;;;;15.56;100.00;100967.22;5051899;28;20055;-76
2022/06/25 02:55:02;;;;;;;14.15;5.97;;;;;;;15.52;100.00;100964.03;5051551;28;20036;-76
2022/06/25 03:00:13;;;;;;;11.35;5.10;;;;;;;15.53;100.00;100964.88;5051632;28;20444;-76
2022/06/25 03:02:39;;;;;;;8.82;4.95;;;;;;;15.51;100.00;100972.25;5051351;28;20036;-76
2022/06/25 03:05:05;;;;;;;11.75;5.18;;;;;;;15.52;100.00;100969.41;5051714;28;20024;-75
2022/06/25 03:07:30;;;;;;;9.45;4.45;;;;;;;15.55;100.00;100970.06;5051101;28;20377;-75
2022/06/25 03:09:55;;;;;;;10.85;4.30;;;;;;;15.59;100.00;100971.41;5051302;28;20092;-75
2022/06/25 03:12:21;;;;;;;8.80;4.60;;;;;;;15.64;100.00;100971.72;5051154;28;20037;-75
2022/06/25 03:14:46;;;;;;;10.00;4.10;;;;;;;15.70;100.00;100968.38;5050870;28;20029;-75
2022/06/25 03:17:12;;;;;;;10.05;3.88;;;;;;;15.76;100.00;100975.72;5051227;28;20095;-75
2022/06/25 03:19:37;;;;;;;6.53;3.47;;;;;;;15.83;100.00;100975.94;5051594;28;20461;-75
2022/06/25 03:22:03;;;;;;;5.70;3.10;;;;;;;15.89;100.00;100979.78;5051188;28;20107;-75
2022/06/25 03:24:28;;;;;;;6.63;2.88;;;;;;;15.95;100.00;100981.78;5049918;28;20119;-75
2022/06/25 03:26:54;;;;;;;7.22;2.80;;;;;;;16.03;100.00;100984.44;5050894;28;20108;-76
2022/06/25 03:29:19;;;;;;;10.43;2.70;;;;;;;16.13;100.00;100982.41;5051500;28;20480;-75
2022/06/25 03:31:44;;;;;;;11.85;2.50;;;;;;;16.24;100.00;100989.25;5051684;28;20044;-75
2022/06/25 03:34:10;;;;;;;6.80;2.40;;;;;;;16.34;100.00;100994.41;5051194;28;20361;-75
2022/06/25 03:36:36;;;;;;;10.23;2.40;;;;;;;16.40;99.36;100983.81;5051027;28;20055;-75
2022/06/25 03:39:03;;;;;;;5.90;2.13;;;;;;;16.50;97.82;100998.91;5049398;28;20493;-75
2022/06/25 03:41:38;;;;;;;6.07;2.30;;;;;;;16.54;96.74;100993.00;5050942;28;20025;-75
2022/06/25 03:44:08;;;;;;;5.40;2.60;;;;;;;16.61;95.69;100995.81;5051469;28;20474;-75
2022/06/25 03:46:35;;;;;;;7.88;2.25;;;;;;;16.67;94.87;100999.66;5051487;28;20598;-75
2022/06/25 03:49:02;;;;;;;7.10;2.22;;;;;;;16.72;94.43;101010.72;5051263;28;20032;-75
2022/06/25 03:51:28;;;;;;;10.38;2.67;;;;;;;16.75;93.64;101008.50;5051226;28;20048;-75
2022/06/25 03:53:54;;;;;;;5.30;2.10;;;;;;;16.79;93.22;101010.84;5050117;28;20029;-76
2022/06/25 03:56:20;;;;;;;4.50;2.15;;;;;;;16.83;92.53;101017.56;5051259;28;20057;-75
2022/06/25 03:58:46;;;;;;;7.60;2.10;;;;;;;16.88;92.09;101018.75;5051077;28;20111;-75
2022/06/25 04:01:12;;;;;;;4.32;2.13;;;;;;;16.88;91.26;101020.56;5051022;28;20025;-75
2022/06/25 04:03:38;;;;;;;6.60;2.85;;;;;;;16.92;90.78;101020.03;5050802;28;20231;-75
2022/06/25 04:06:03;;;;;;;7.60;2.30;;;;;;;16.97;90.53;101022.19;5050670;28;20057;-74
2022/06/25 04:08:29;;;;;;;5.97;2.65;;;;;;;17.03;90.17;101028.72;5050797;28;20043;-74
2022/06/25 04:10:54;;;;;;;7.75;2.40;;;;;;;17.07;90.78;101025.50;5049326;28;20043;-74
2022/06/25 04:13:20;;;;;;;8.02;2.47;;;;;;;17.09;90.69;101028.00;5050826;28;20029;-74
2022/06/25 04:15:45;;;;;;;9.45;2.72;;;;;;;17.13;90.51;101025.81;5050471;28;20033;-75
2022/06/25 04:18:11;;;;;;;8.60;2.80;;;;;;;17.16;89.80;101026.28;5049393;28;20041;-74
2022/06/25 04:20:36;;;;;;;7.75;2.55;;;;;;;17.18;90.02;101028.78;5050621;28;20037;-74
2022/06/25 04:23:01;;;;;;;8.77;3.42;;;;;;;17.17;90.17;101029.84;5050749;28;20106;-74
2022/06/25 04:25:27;;;;;;;4.78;2.55;;;;;;;17.19;89.12;101033.16;5050943;28;20381;-74
2022/06/25 04:30:36;;;;;;;7.95;2.83;;;;;;;17.19;89.88;101020.56;5050878;28;20099;-75
2022/06/25 04:33:02;;;;;;;6.78;2.72;;;;;;;17.19;89.54;101030.47;5050589;28;20033;-75
2022/06/25 04:35:27;;;;;;;7.72;2.58;;;;;;;17.20;88.85;101024.09;5049538;28;20037;-74
2022/06/25 04:37:53;;;;;;;5.55;2.85;;;;;;;17.25;88.48;101032.44;5050062;28;20110;-74
2022/06/25 04:40:18;;;;;;;8.50;2.60;;;;;;;17.28;88.71;101026.72;5052894;28;20068;-74
2022/06/25 04:42:45;;;;;;;6.82;2.67;;;;;;;17.32;88.60;101029.91;5052843;28;20033;-75
2022/06/25 04:45:10;;;;;;;6.82;2.70;;;;;;;17.34;88.18;101036.75;5054179;28;20060;-74
2022/06/25 04:47:35;;;;;;;7.00;2.63;;;;;;;17.32;87.15;101038.78;5054397;28;20084;-74
2022/06/25 04:50:01;;;;;;;6.32;2.47;;;;;;;17.31;87.01;101045.19;5054455;28;20028;-75
2022/06/25 04:52:26;;;;;;;7.93;2.78;;;;;;;17.34;87.70;101052.06;5054318;28;20025;-75
2022/06/25 04:54:51;;;;;;;4.53;2.28;;;;;;;17.37;87.73;101051.69;5054349;28;20025;-75
2022/06/25 04:57:17;;;;;;;8.60;2.42;;;;;;;17.41;87.80;101053.84;5052689;28;20033;-75
2022/06/25 04:59:42;;;;;;;6.13;2.42;;;;;;;17.42;87.26;101060.91;5053820;28;20037;-75
2022/06/25 05:02:08;;;;;;;4.68;2.38;;;;;;;17.49;87.11;101057.50;5053641;28;20033;-75
2022/06/25 05:04:33;;;;;;;4.75;2.20;;;;;;;17.58;87.31;101059.94;5052285;28;20065;-75
2022/06/25 05:06:58;;;;;;;15.50;2.38;;;;;;;17.67;86.02;101063.41;5053619;28;20151;-75
2022/06/25 05:09:25;;;;;;;7.38;2.20;;;;;;;17.75;86.00;101057.97;5053658;28;20028;-75
2022/06/25 05:11:51;;;;;;;9.93;2.20;;;;;;;17.85;86.19;101054.19;5053356;28;20461;-74
2022/06/25 05:14:17;;;;;;;11.55;2.45;;;;;;;17.94;85.23;101055.81;5053571;28;20036;-74
2022/06/25 05:16:42;;;;;;;4.57;2.03;;;;;;;18.00;84.42;101062.31;5053580;28;20057;-74
2022/06/25 05:19:07;;;;;;;5.55;1.88;;;;;;;18.10;84.75;101065.59;5053750;28;20135;-74
2022/06/25 05:21:34;;;;;;;3.85;2.15;;;;;;;18.18;83.44;101068.19;5052057;28;20479;-75
2022/06/25 05:23:59;;;;;;;8.05;1.83;;;;;;;18.19;83.12;101074.44;5053624;28;20112;-74
2022/06/25 05:26:25;;;;;;;5.28;1.83;;;;;;;18.29;83.68;101072.31;5053572;28;20068;-74
2022/06/25 05:28:50;;;;;;;8.45;1.83;;;;;;;18.42;83.20;101079.72;5053504;28;20029;-79
2022/06/25 05:31:16;;;;;;;6.78;2.03;;;;;;;18.51;82.75;101075.91;5053696;28;20047;-75
2022/06/25 05:33:41;;;;;;;3.75;2.03;;;;;;;18.49;80.59;101077.97;5051977;28;20057;-74
2022/06/25 05:36:06;;;;;;;6.38;1.80;;;;;;;18.58;80.15;101078.72;5053524;28;20029;-74
2022/06/25 05:38:32;;;;;;;6.50;1.67;;;;;;;18.58;81.63;101093.03;5053249;28;20110;-74
2022/06/25 05:40:57;;;;;;;7.65;1.80;;;;;;;18.60;80.96;101099.09;5053169;28;20119;-74
2022/06/25 05:43:23;;;;;;;3.75;2.30;;;;;;;18.64;82.18;101096.84;5053331;28;20036;-75
2022/06/25 05:45:48;;;;;;;5.57;1.90;;;;;;;18.57;80.52;101095.91;5053097;28;20442;-73
2022/06/25 05:48:13;;;;;;;3.08;1.80;;;;;;;18.64;81.71;101100.34;5051888;28;20071;-74
2022/06/25 05:50:39;;;;;;;3.97;1.85;;;;;;;18.72;81.23;101104.84;5051582;28;20120;-74
2022/06/25 05:53:04;;;;;;;2.65;1.60;;;;;;;18.74;80.54;101099.28;5052922;28;20327;-74
2022/06/25 05:55:30;;;;;;;3.63;1.85;;;;;;;18.93;80.11;101104.13;5053175;28;20366;-74
2022/06/25 05:57:55;;;;;;;3.90;1.52;;;;;;;19.16;80.18;101095.88;5052843;28;20384;-75
2022/06/25 06:00:21;;;;;;;7.75;2.00;;;;;;;19.34;78.84;101097.31;5052871;28;20039;-74
2022/06/25 06:02:46;;;;;;;4.85;1.77;;;;;;;19.54;79.28;101100.22;5052820;28;20202;-74
2022/06/25 06:05:12;;;;;;;7.68;2.03;;;;;;;19.69;76.25;101103.72;5052838;28;20398;-74
2022/06/25 06:07:37;;;;;;;6.43;1.80;;;;;;;19.76;76.66;101102.94;5052304;28;20037;-74
2022/06/25 06:10:04;;;;;;;5.97;1.80;;;;;;;19.81;76.33;101095.97;5052246;28;20104;-75
2022/06/25 06:12:29;;;;;;;5.10;1.92;;;;;;;19.76;75.55;101106.47;5052075;28;20465;-76
2022/06/25 06:14:55;;;;;;;6.32;2.10;;;;;;;19.83;73.93;101106.56;5052150;28;20033;-74
2022/06/25 06:17:21;;;;;;;6.15;2.00;;;;;;;19.86;76.25;101120.50;5052344;28;20033;-73
2022/06/25 06:19:46;;;;;;;4.22;1.75;;;;;;;19.81;76.11;101119.41;5052608;28;20128;-75
2022/06/25 06:22:11;;;;;;;7.90;2.10;;;;;;;19.67;75.65;101127.34;5051971;28;20350;-74
2022/06/25 06:24:37;;;;;;;8.60;1.90;;;;;;;19.61;76.21;101130.00;5052428;28;20098;-76
2022/06/25 06:27:02;;;;;;;3.95;1.77;;;;;;;19.56;76.38;101133.28;5052045;28;20040;-76
2022/06/25 06:29:29;;;;;;;4.00;1.75;;;;;;;19.52;76.72;101135.50;5052437;28;20475;-75
2022/06/25 06:31:54;;;;;;;3.17;1.70;;;;;;;19.60;77.97;101139.09;5052458;28;20044;-75
2022/06/25 06:34:20;;;;;;;4.18;1.92;;;;;;;19.68;75.65;101139.81;5052186;28;20036;-75
2022/06/25 06:36:45;;;;;;;10.93;1.92;;;;;;;19.68;75.72;101142.53;5052114;28;20113;-75
2022/06/25 06:39:11;;;;;;;4.22;1.70;;;;;;;19.55;77.09;101142.38;5051737;28;20071;-75
2022/06/25 06:41:37;;;;;;;6.45;2.20;;;;;;;19.37;76.83;101150.91;5051954;28;20468;-75
2022/06/25 06:44:02;;;;;;;7.50;1.83;;;;;;;19.17;77.70;101146.09;5052097;28;20185;-75
2022/06/25 06:46:27;;;;;;;4.97;1.60;;;;;;;18.99;78.41;101148.38;5050554;28;20442;-75
2022/06/25 06:48:53;;;;;;;4.53;2.05;;;;;;;18.98;78.47;101146.69;5052031;28;20040;-76
2022/06/25 06:51:18;;;;;;;7.18;1.80;;;;;;;19.01;78.94;101152.53;5050268;28;20077;-75
2022/06/25 06:53:43;;;;;;;3.80;1.63;;;;;;;19.11;78.58;101154.09;5051967;28;20119;-75
2022/06/25 06:56:09;;;;;;;5.28;1.50;;;;;;;19.16;77.40;101157.06;5051947;28;20454;-75
2022/06/25 06:58:34;;;;;;;5.90;1.85;;;;;;;19.27;77.06;101159.31;5052033;28;20422;-74
2022/06/25 07:01:00;;;;;;;2.50;1.48;;;;;;;19.24;76.58;101162.34;5050343;28;20043;-74
2022/06/25 07:03:25;;;;;;;2.67;1.50;;;;;;;19.19;76.46;101171.00;5052529;28;20036;-75
2022/06/25 07:05:50;;;;;;;3.63;1.60;;;;;;;19.08;78.22;101168.81;5052485;28;20025;-74
2022/06/25 07:08:16;;;;;;;3.78;1.77;;;;;;;18.88;78.15;101179.31;5051531;28;20475;-74
2022/06/25 07:10:41;;;;;;;5.60;1.90;;;;;;;18.68;78.32;101184.38;5053144;28;20539;-75
2022/06/25 07:13:07;;;;;;;5.43;1.90;;;;;;;18.47;78.78;101177.03;5052835;28;20029;-76
2022/06/25 07:15:32;;;;;;;14.20;2.13;;;;;;;18.29;80.70;101175.47;5052778;28;20376;-76
2022/06/25 07:17:58;;;;;;;4.18;1.50;;;;;;;18.19;81.26;101174.91;5052704;28;20428;-75
2022/06/25 07:20:23;;;;;;;4.25;1.50;;;;;;;18.09;81.48;101185.94;5052296;28;20064;-75
2022/06/25 07:22:48;;;;;;;6.88;1.58;;;;;;;18.05;81.60;101175.69;5052304;28;20067;-75
2022/06/25 07:25:14;;;;;;;6.78;1.77;;;;;;;17.91;81.60;101182.69;5052177;28;20124;-75
2022/06/25 07:27:39;;;;;;;7.57;1.88;;;;;;;17.84;81.70;101201.38;5050448;28;20060;-75
2022/06/25 07:30:05;;;;;;;3.40;1.90;;;;;;;17.72;80.29;101198.25;5051753;28;20025;-74
2022/06/25 07:32:31;;;;;;;4.72;1.70;;;;;;;17.63;80.84;101193.94;5051763;28;20118;-74
2022/06/25 07:34:56;;;;;;;9.68;1.73;;;;;;;17.53;81.72;101207.59;5051402;28;20025;-74
2022/06/25 07:37:22;;;;;;;5.47;1.40;;;;;;;17.43;81.21;101210.50;5050208;28;20044;-76
2022/06/25 07:39:47;;;;;;;9.63;1.73;;;;;;;17.35;81.07;101209.72;5051838;28;20128;-79
2022/06/25 07:42:12;;;;;;;6.63;1.40;;;;;;;17.25;83.59;101209.91;5050272;28;20021;-80
2022/06/25 07:44:38;;;;;;;5.82;1.60;;;;;;;17.03;87.50;101223.09;5052328;28;20047;-86
2022/06/25 07:47:03;;;;;;;8.07;1.60;;;;;;;16.72;88.87;101214.91;5051850;28;20041;-82
2022/06/25 07:49:29;;;;;;;4.32;1.70;;;;;;;16.51;92.68;101218.09;5051836;28;20021;-81
2022/06/25 07:51:57;;;;;;;7.30;1.77;;;;;;;16.34;93.48;101215.41;5051733;28;20037;-73
2022/06/25 07:54:24;;;;;;;7.05;2.20;;;;;;;16.23;93.26;101210.41;5051870;28;20036;-73
2022/06/25 07:56:49;;;;;;;4.20;1.80;;;;;;;16.25;95.56;101215.59;5051700;28;20111;-76
2022/06/25 07:59:15;;;;;;;7.05;1.90;;;;;;;16.33;94.68;101216.44;5052159;28;20033;-75
2022/06/25 08:01:40;;;;;;;6.88;1.85;;;;;;;16.50;96.38;101222.66;5050828;28;20029;-75
2022/06/25 08:04:06;;;;;;;8.15;1.80;;;;;;;16.72;93.55;101228.34;5051881;28;20079;-74
2022/06/25 08:06:34;;;;;;;7.22;1.67;;;;;;;16.88;90.14;101227.50;5051643;28;20029;-74
2022/06/25 08:09:00;;;;;;;10.60;1.83;;;;;;;16.93;92.10;101225.16;5051966;28;20033;-74
2022/06/25 08:11:25;;;;;;;6.07;1.80;;;;;;;16.91;90.12;101224.47;5051178;28;20033;-74
2022/06/25 08:13:50;;;;;;;5.65;1.60;;;;;;;16.93;91.59;101227.84;5053488;28;20033;-74
2022/06/25 08:16:16;;;;;;;9.27;1.40;;;;;;;16.96;88.29;101232.00;5055655;28;20052;-75
2022/06/25 08:18:41;;;;;;;2.03;1.23;;;;;;;17.05;86.13;101233.69;5055873;28;20426;-75
2022/06/25 08:21:06;;;;;;;7.45;1.75;;;;;;;17.16;85.99;101229.78;5056140;28;20072;-75
2022/06/25 08:23:32;;;;;;;4.03;1.60;;;;;;;17.37;87.10;101231.88;5055451;28;20033;-75
2022/06/25 08:25:57;;;;;;;9.70;1.90;;;;;;;17.54;83.82;101241.56;5054565;28;20534;-75
2022/06/25 08:28:24;;;;;;;4.40;1.65;;;;;;;17.65;82.59;101234.13;5055825;28;20029;-75
2022/06/25 08:30:49;;;;;;;3.92;1.40;;;;;;;17.78;85.97;101239.78;5055663;28;20044;-75
2022/06/25 08:33:15;;;;;;;7.40;1.63;;;;;;;17.78;85.91;101240.59;5055454;28;20377;-75
2022/06/25 08:35:41;;;;;;;8.43;1.98;;;;;;;17.75;83.89;101243.66;5055493;28;20029;-75
2022/06/25 08:38:06;;;;;;;4.32;1.55;;;;;;;17.79;82.81;101241.44;5055179;28;20055;-76
2022/06/25 08:40:32;;;;;;;8.45;1.73;;;;;;;17.85;82.13;101237.19;5054993;28;20029;-75
2022/06/25 08:42:58;;;;;;;4.88;1.42;;;;;;;17.91;82.47;101248.13;5055314;28;20086;-75
2022/06/25 08:45:24;;;;;;;11.10;2.28;;;;;;;17.89;82.24;101243.91;5054551;28;20079;-75
2022/06/25 08:47:50;;;;;;;4.85;1.90;;;;;;;17.88;82.67;101250.31;5054513;28;20025;-75
2022/06/25 08:50:21;;;;;;;8.95;1.60;;;;;;;17.84;83.07;101251.66;5055165;28;20085;-78
2022/06/25 08:52:49;;;;;;;9.25;1.90;;;;;;;17.85;82.93;101251.47;5054924;28;20025;-75
2022/06/25 08:55:35;;;;;;;9.60;2.03;;;;;;;17.88;80.81;101256.50;5054804;28;20477;-74
2022/06/25 08:58:02;;;;;;;8.75;1.95;;;;;;;17.96;82.20;101256.50;5054814;28;20029;-75
2022/06/25 09:00:29;;;;;;;11.13;2.15;;;;;;;18.12;84.98;101255.56;5053946;28;20036;-75
2022/06/25 09:02:54;;;;;;;13.02;2.00;;;;;;;18.28;84.49;101251.91;5054535;28;20033;-75
2022/06/25 09:05:27;;;;;;;10.05;1.75;;;;;;;18.41;85.59;101254.00;5054719;28;20083;-75
2022/06/25 09:07:54;;;;;;;6.55;1.80;;;;;;;18.46;84.71;101250.78;5054521;28;20029;-75
2022/06/25 09:10:21;;;;;;;10.85;2.08;;;;;;;18.47;81.25;101255.16;5054436;28;20037;-75
2022/06/25 09:12:57;;;;;;;12.23;2.45;;;;;;;18.35;78.83;101252.03;5054487;28;20037;-75
2022/06/25 09:15:25;;;;;;;8.32;2.10;;;;;;;18.33;78.42;101259.44;5054804;28;20400;-75
2022/06/25 09:17:52;;;;;;;8.88;1.60;;;;;;;18.54;75.60;101257.94;5053986;28;20410;-74
2022/06/25 09:20:22;;;;;;;7.88;2.08;;;;;;;18.96;73.56;101262.81;5054403;28;20040;-74
2022/06/25 09:22:58;;;;;;;8.52;2.13;;;;;;;19.24;70.87;101256.75;5054470;28;20425;-75
2022/06/25 09:25:30;;;;;;;6.78;1.80;;;;;;;19.23;69.56;101256.94;5053482;28;20028;-75
2022/06/25 09:27:57;;;;;;;6.45;1.83;;;;;;;19.17;72.08;101258.56;5054485;28;20029;-76
2022/06/25 09:30:26;;;;;;;9.90;1.98;;;;;;;19.09;73.42;101269.41;5053872;28;20108;-76
2022/06/25 09:32:55;;;;;;;9.93;2.20;;;;;;;19.01;70.13;101262.25;5054010;28;20491;-75
2022/06/25 09:35:33;;;;;;;7.57;1.90;;;;;;;18.86;70.67;101259.53;5053982;28;20029;-78
2022/06/25 09:38:01;;;;;;;10.07;1.92;;;;;;;18.68;71.08;101266.06;5053563;28;20028;-75
2022/06/25 09:40:27;;;;;;;13.27;2.10;;;;;;;18.58;71.88;101276.25;5052592;28;20098;-75
2022/06/25 09:42:53;;;;;;;11.73;1.75;;;;;;;18.38;71.63;101281.31;5053873;28;20029;-75
2022/06/25 09:45:18;;;;;;;7.68;1.80;;;;;;;18.35;73.52;101278.97;5053595;28;20401;-75
2022/06/25 09:47:44;;;;;;;8.10;2.00;;;;;;;18.50;76.25;101285.25;5054173;28;20064;-75
2022/06/25 09:50:18;;;;;;;5.93;1.73;;;;;;;18.80;76.65;101289.91;5053787;28;20098;-73
2022/06/25 09:52:50;;;;;;;12.10;2.47;;;;;;;19.05;71.21;101286.97;5053686;28;20074;-74
2022/06/25 09:55:16;;;;;;;8.93;2.00;;;;;;;19.18;72.33;101297.97;5053877;28;20176;-75
2022/06/25 09:57:43;;;;;;;10.40;1.90;;;;;;;19.22;71.67;101291.19;5053630;28;20044;-74
2022/06/25 10:00:10;;;;;;;9.77;2.08;;;;;;;19.17;71.95;101297.13;5052285;28;20139;-75
2022/06/25 10:02:36;;;;;;;12.13;2.10;;;;;;;19.42;74.28;101298.72;5053521;28;20036;-75
2022/06/25 10:05:04;;;;;;;12.43;2.70;;;;;;;19.84;72.72;101299.91;5053592;28;20036;-75
2022/06/25 10:10:20;;;;;;;9.57;2.63;;;;;;;20.43;70.91;101288.09;5053611;28;20102;-74
2022/06/25 10:12:50;;;;;;;12.30;2.33;;;;;;;20.62;70.00;101286.59;5053082;28;20063;-75
2022/06/25 10:15:18;;;;;;;14.38;2.70;;;;;;;20.93;69.27;101285.44;5053094;28;20061;-76
2022/06/25 10:17:54;;;;;;;11.30;2.60;;;;;;;21.45;64.81;101288.66;5052925;28;20099;-74
2022/06/25 10:20:21;;;;;;;10.38;2.35;;;;;;;21.39;63.77;101275.91;5053202;28;20474;-75
2022/06/25 10:22:49;;;;;;;10.45;2.40;;;;;;;21.08;65.70;101288.03;5052764;28;20083;-74
2022/06/25 10:25:18;;;;;;;8.80;2.30;;;;;;;20.61;68.19;101296.56;5052717;28;20052;-74
2022/06/25 10:27:46;;;;;;;11.55;2.13;;;;;;;20.21;69.95;101292.66;5052353;28;20366;-74
2022/06/25 10:30:13;;;;;;;12.63;2.65;;;;;;;20.37;70.09;101297.78;5053197;28;20039;-74
2022/06/25 10:32:49;;;;;;;9.20;2.63;;;;;;;21.05;68.45;101296.50;5053322;28;20036;-75
2022/06/25 10:35:35;;;;;;;12.50;2.35;;;;;;;21.79;66.35;101295.09;5052979;28;20164;-75
2022/06/25 10:38:16;;;;;;;7.53;2.13;;;;;;;22.61;62.28;101295.09;5052815;28;20024;-74
2022/06/25 10:43:53;;;;;;;12.05;2.35;;;;;;;23.58;56.81;101304.34;5041916;28;20436;-75
2022/06/25 10:46:19;;;;;;;11.02;2.85;;;;;;;23.51;57.97;101308.13;5052725;28;20040;-75
2022/06/25 10:49:03;;;;;;;8.75;2.55;;;;;;;24.15;55.95;101305.59;5052759;28;20036;-76
2022/06/25 10:51:34;;;;;;;8.10;2.05;;;;;;;23.94;55.43;101302.13;5053004;28;20033;-75
2022/06/25 10:54:02;;;;;;;15.00;2.67;;;;;;;24.07;56.05;101293.91;5052869;28;20108;-75
2022/06/25 10:56:34;;;;;;;12.43;2.42;;;;;;;24.07;53.52;101301.25;5052295;28;20032;-75
2022/06/25 10:58:59;;;;;;;7.25;2.40;;;;;;;23.46;58.12;101295.22;5052860;28;20026;-76
2022/06/25 11:01:28;;;;;;;8.68;2.08;;;;;;;23.13;57.21;101295.28;5052292;28;20086;-75
2022/06/25 11:03:55;;;;;;;13.38;3.17;;;;;;;23.07;58.89;101305.91;5052588;28;20025;-75
2022/06/25 11:06:29;;;;;;;9.00;2.60;;;;;;;22.76;58.23;101300.31;5052325;28;20134;-74
2022/06/25 11:09:03;;;;;;;7.50;2.35;;;;;;;22.43;59.76;101303.84;5051980;28;20470;-75
2022/06/25 11:11:31;;;;;;;8.50;2.40;;;;;;;22.31;60.60;101298.16;5051209;28;20449;-74
2022/06/25 11:13:58;;;;;;;10.18;2.70;;;;;;;22.16;62.97;101304.56;5052066;28;20126;-74
2022/06/25 11:16:24;;;;;;;12.93;2.58;;;;;;;22.33;60.99;101306.94;5052255;28;20040;-74
2022/06/25 11:18:58;;;;;;;6.35;2.22;;;;;;;22.44;61.13;101302.81;5051882;28;20068;-74
2022/06/25 11:21:28;;;;;;;10.18;2.50;;;;;;;23.16;61.71;101290.28;5052330;28;20075;-74
2022/06/25 11:24:26;;;;;;;6.60;2.83;;;;;;;24.36;55.99;101282.66;5052712;28;20111;-74
2022/06/25 11:29:48;;;;;;;7.25;2.90;;;;;;;24.48;51.67;101294.47;5052278;28;20044;-73
2022/06/25 11:32:19;;;;;;;5.15;2.85;;;;;;;23.83;52.53;101292.75;5052562;28;20033;-72
2022/06/25 11:34:44;;;;;;;5.07;2.72;;;;;;;23.57;55.32;101285.56;5052332;28;20032;-73